sensor_id;sensor_type;location;lat;lon;timestamp;temperature;humidity
1992;DHT22;997;48.448;8.924;2023-09-19T03:03:30;16.10;99.90
1992;DHT22;997;48.448;8.924;2023-09-19T03:05:55;16.20;99.90
1992;DHT22;997;48.448;8.924;2023-09-19T03:08:21;16.20;99.90
1992;DHT22;997;48.448;8.924;2023-09-19T03:10:47;16.20;99.90
1992;DHT22;997;48.448;8.924;2023-09-19T03:13:16;16.20;99.90
1992;DHT22;997;48.448;8.924;2023-09-19T03:18:53;16.20;99.90
1992;DHT22;997;48.448;8.924;2023-09-19T03:21:19;16.20;99.90
1992;DHT22;997;48.448;8.924;2023-09-19T03:23:46;16.30;99.90
1992;DHT22;997;48.448;8.924;2023-09-19T03:26:13;16.30;99.90
1992;DHT22;997;48.448;8.924;2023-09-19T03:28:41;16.30;99.90
1992;DHT22;997;48.448;8.924;2023-09-19T03:31:09;16.30;99.90
1992;DHT22;997;48.448;8.924;2023-09-19T03:33:35;16.20;99.90
1992;DHT22;997;48.448;8.924;2023-09-19T03:36:02;16.20;99.90
1992;DHT22;997;48.448;8.924;2023-09-19T03:38:30;16.20;99.90
1992;DHT22;997;48.448;8.924;2023-09-19T03:40:57;16.20;99.90
1992;DHT22;997;48.448;8.924;2023-09-19T03:43:22;16.10;99.90
1992;DHT22;997;48.448;8.924;2023-09-19T03:45:48;16.10;99.90
1992;DHT22;997;48.448;8.924;2023-09-19T03:48:14;16.20;99.90
1992;DHT22;997;48.448;8.924;2023-09-19T03:50:40;16.20;99.90
1992;DHT22;997;48.448;8.924;2023-09-19T03:53:06;16.30;99.90
1992;DHT22;997;48.448;8.924;2023-09-19T03:55:34;16.30;99.90
1992;DHT22;997;48.448;8.924;2023-09-19T03:58:04;16.40;99.90
1992;DHT22;997;48.448;8.924;2023-09-19T04:00:30;16.30;99.90
1992;DHT22;997;48.448;8.924;2023-09-19T04:02:56;16.30;99.90
1992;DHT22;997;48.448;8.924;2023-09-19T04:05:25;16.30;99.90
1992;DHT22;997;48.448;8.924;2023-09-19T04:07:50;16.20;99.90
1992;DHT22;997;48.448;8.924;2023-09-19T04:10:17;16.10;99.90
1992;DHT22;997;48.448;8.924;2023-09-19T04:12:53;16.00;99.90
1992;DHT22;997;48.448;8.924;2023-09-19T04:15:19;16.00;99.90
1992;DHT22;997;48.448;8.924;2023-09-19T04:17:45;15.90;99.90
1992;DHT22;997;48.448;8.924;2023-09-19T04:20:10;15.90;99.90
1992;DHT22;997;48.448;8.924;2023-09-19T04:22:38;15.80;99.90
1992;DHT22;997;48.448;8.924;2023-09-19T04:25:05;15.80;99.90
1992;DHT22;997;48.448;8.924;2023-09-19T04:27:32;15.80;99.90
1992;DHT22;997;48.448;8.924;2023-09-19T04:29:58;15.70;99.90
1992;DHT22;997;48.448;8.924;2023-09-19T04:32:28;15.80;99.90
1992;DHT22;997;48.448;8.924;2023-09-19T04:34:53;15.90;99.90
1992;DHT22;997;48.448;8.924;2023-09-19T04:37:19;16.10;99.90
1992;DHT22;997;48.448;8.924;2023-09-19T04:39:45;16.20;99.90
1992;DHT22;997;48.448;8.924;2023-09-19T04:42:13;16.20;99.90
1992;DHT22;997;48.448;8.924;2023-09-19T04:44:39;16.50;99.90
1992;DHT22;997;48.448;8.924;2023-09-19T04:47:05;16.60;99.90
1992;DHT22;997;48.448;8.924;2023-09-19T04:49:31;16.60;99.90
1992;DHT22;997;48.448;8.924;2023-09-19T04:51:57;16.80;99.90
1992;DHT22;997;48.448;8.924;2023-09-19T04:54:22;16.80;99.90
1992;DHT22;997;48.448;8.924;2023-09-19T04:56:48;16.80;99.90
1992;DHT22;997;48.448;8.924;2023-09-19T04:59:14;16.80;99.90
1992;DHT22;997;48.448;8.924;2023-09-19T05:01:41;16.70;99.90
1992;DHT22;997;48.448;8.924;2023-09-19T05:04:06;16.70;99.90
1992;DHT22;997;48.448;8.924;2023-09-19T05:06:32;16.70;99.90
1992;DHT22;997;48.448;8.924;2023-09-19T05:08:59;16.60;99.90
1992;DHT22;997;48.448;8.924;2023-09-19T05:11:25;16.60;99.90
1992;DHT22;997;48.448;8.924;2023-09-19T05:13:51;16.70;99.90
1992;DHT22;997;48.448;8.924;2023-09-19T05:16:18;16.60;99.90
1992;DHT22;997;48.448;8.924;2023-09-19T05:18:44;16.50;99.90
1992;DHT22;997;48.448;8.924;2023-09-19T05:21:10;16.40;99.90
1992;DHT22;997;48.448;8.924;2023-09-19T05:23:36;16.40;99.90
1992;DHT22;997;48.448;8.924;2023-09-19T05:26:02;16.40;99.90
1992;DHT22;997;48.448;8.924;2023-09-19T05:28:29;16.40;99.90
1992;DHT22;997;48.448;8.924;2023-09-19T05:30:55;16.40;99.90
1992;DHT22;997;48.448;8.924;2023-09-19T05:33:21;16.40;99.90
1992;DHT22;997;48.448;8.924;2023-09-19T05:35:49;16.30;99.90
1992;DHT22;997;48.448;8.924;2023-09-19T05:38:15;16.30;99.90
1992;DHT22;997;48.448;8.924;2023-09-19T05:40:45;16.30;99.90
1992;DHT22;997;48.448;8.924;2023-09-19T05:43:10;16.40;99.90
1992;DHT22;997;48.448;8.924;2023-09-19T05:45:36;16.30;99.90
1992;DHT22;997;48.448;8.924;2023-09-19T05:48:13;16.30;99.90
1992;DHT22;997;48.448;8.924;2023-09-19T05:50:40;16.20;99.90
1992;DHT22;997;48.448;8.924;2023-09-19T05:53:06;16.20;99.90
1992;DHT22;997;48.448;8.924;2023-09-19T05:55:34;16.20;99.90
1992;DHT22;997;48.448;8.924;2023-09-19T05:58:00;16.20;99.90
1992;DHT22;997;48.448;8.924;2023-09-19T06:00:29;16.10;99.90
1992;DHT22;997;48.448;8.924;2023-09-19T06:02:56;16.10;99.90
1992;DHT22;997;48.448;8.924;2023-09-19T06:05:24;16.10;99.90
1992;DHT22;997;48.448;8.924;2023-09-19T06:07:52;16.10;99.90
1992;DHT22;997;48.448;8.924;2023-09-19T06:10:18;16.10;99.90
1992;DHT22;997;48.448;8.924;2023-09-19T06:12:46;16.00;99.90
1992;DHT22;997;48.448;8.924;2023-09-19T06:15:14;16.10;99.90
1992;DHT22;997;48.448;8.924;2023-09-19T06:17:49;16.10;99.90
1992;DHT22;997;48.448;8.924;2023-09-19T06:20:16;16.10;99.90
1992;DHT22;997;48.448;8.924;2023-09-19T06:22:43;16.20;99.90
1992;DHT22;997;48.448;8.924;2023-09-19T06:25:10;16.20;99.90
1992;DHT22;997;48.448;8.924;2023-09-19T06:27:40;16.30;99.90
1992;DHT22;997;48.448;8.924;2023-09-19T06:30:10;16.30;99.90
1992;DHT22;997;48.448;8.924;2023-09-19T06:32:42;16.30;99.90
1992;DHT22;997;48.448;8.924;2023-09-19T06:35:13;16.40;99.90
1992;DHT22;997;48.448;8.924;2023-09-19T06:37:40;16.40;99.90
1992;DHT22;997;48.448;8.924;2023-09-19T06:42:34;16.50;99.90
1992;DHT22;997;48.448;8.924;2023-09-19T06:45:04;16.50;99.90
1992;DHT22;997;48.448;8.924;2023-09-19T06:47:30;16.60;99.90
1992;DHT22;997;48.448;8.924;2023-09-19T06:49:55;16.60;99.90
1992;DHT22;997;48.448;8.924;2023-09-19T06:52:21;16.70;99.90
1992;DHT22;997;48.448;8.924;2023-09-19T06:54:48;16.80;99.90
1992;DHT22;997;48.448;8.924;2023-09-19T06:57:16;16.80;99.90
1992;DHT22;997;48.448;8.924;2023-09-19T06:59:41;16.80;99.90
1992;DHT22;997;48.448;8.924;2023-09-19T07:02:07;16.80;99.90
1992;DHT22;997;48.448;8.924;2023-09-19T07:04:33;16.90;99.90
1992;DHT22;997;48.448;8.924;2023-09-19T07:06:59;16.80;99.90
1992;DHT22;997;48.448;8.924;2023-09-19T07:09:25;16.90;99.90
1992;DHT22;997;48.448;8.924;2023-09-19T07:11:53;17.00;99.90
1992;DHT22;997;48.448;8.924;2023-09-19T07:14:18;17.10;99.90
1992;DHT22;997;48.448;8.924;2023-09-19T07:16:44;16.90;99.90
1992;DHT22;997;48.448;8.924;2023-09-19T07:19:10;16.80;99.90
1992;DHT22;997;48.448;8.924;2023-09-19T07:21:36;16.80;99.90
1992;DHT22;997;48.448;8.924;2023-09-19T07:24:04;16.90;99.90
1992;DHT22;997;48.448;8.924;2023-09-19T07:26:30;17.00;99.90
1992;DHT22;997;48.448;8.924;2023-09-19T07:28:56;17.20;99.90
1992;DHT22;997;48.448;8.924;2023-09-19T07:31:23;17.30;99.90
1992;DHT22;997;48.448;8.924;2023-09-19T07:33:50;17.20;99.90
1992;DHT22;997;48.448;8.924;2023-09-19T07:36:16;17.30;99.90
1992;DHT22;997;48.448;8.924;2023-09-19T07:38:42;17.40;99.90
1992;DHT22;997;48.448;8.924;2023-09-19T07:41:08;17.50;99.90
1992;DHT22;997;48.448;8.924;2023-09-19T07:43:35;17.50;99.90
1992;DHT22;997;48.448;8.924;2023-09-19T07:46:08;17.40;99.90
1992;DHT22;997;48.448;8.924;2023-09-19T07:48:37;17.40;99.90
1992;DHT22;997;48.448;8.924;2023-09-19T07:51:07;17.50;99.90
1992;DHT22;997;48.448;8.924;2023-09-19T07:53:34;17.60;99.90
1992;DHT22;997;48.448;8.924;2023-09-19T07:56:07;17.50;99.90
1992;DHT22;997;48.448;8.924;2023-09-19T07:58:34;17.60;99.90
1992;DHT22;997;48.448;8.924;2023-09-19T08:01:07;17.60;99.90
1992;DHT22;997;48.448;8.924;2023-09-19T08:03:34;17.50;99.90
1992;DHT22;997;48.448;8.924;2023-09-19T08:06:00;17.50;99.90
1992;DHT22;997;48.448;8.924;2023-09-19T08:08:27;17.60;99.90
1992;DHT22;997;48.448;8.924;2023-09-19T08:10:54;17.40;99.90
1992;DHT22;997;48.448;8.924;2023-09-19T08:13:25;17.30;99.90
1992;DHT22;997;48.448;8.924;2023-09-19T08:15:50;17.30;99.90
1992;DHT22;997;48.448;8.924;2023-09-19T08:18:17;17.40;99.90
1992;DHT22;997;48.448;8.924;2023-09-19T08:20:43;17.30;99.90
1992;DHT22;997;48.448;8.924;2023-09-19T08:23:12;17.40;99.90
1992;DHT22;997;48.448;8.924;2023-09-19T08:25:37;17.60;99.90
1992;DHT22;997;48.448;8.924;2023-09-19T08:28:04;17.50;99.90
1992;DHT22;997;48.448;8.924;2023-09-19T08:30:33;17.50;99.90
1992;DHT22;997;48.448;8.924;2023-09-19T08:33:00;17.60;99.90
1992;DHT22;997;48.448;8.924;2023-09-19T08:35:27;17.60;99.90
1992;DHT22;997;48.448;8.924;2023-09-19T08:37:52;17.50;99.90
1992;DHT22;997;48.448;8.924;2023-09-19T08:40:18;17.60;99.90
1992;DHT22;997;48.448;8.924;2023-09-19T08:42:51;17.70;99.90
1992;DHT22;997;48.448;8.924;2023-09-19T08:45:17;17.60;99.90
1992;DHT22;997;48.448;8.924;2023-09-19T08:47:56;17.70;99.90
1992;DHT22;997;48.448;8.924;2023-09-19T08:50:29;17.90;99.90
1992;DHT22;997;48.448;8.924;2023-09-19T08:53:01;18.10;99.90
1992;DHT22;997;48.448;8.924;2023-09-19T08:55:29;18.20;99.90
1992;DHT22;997;48.448;8.924;2023-09-19T08:58:03;18.20;99.90
1992;DHT22;997;48.448;8.924;2023-09-19T09:00:30;18.20;99.90
1992;DHT22;997;48.448;8.924;2023-09-19T09:02:57;18.10;99.90
1992;DHT22;997;48.448;8.924;2023-09-19T09:05:24;17.90;99.90
1992;DHT22;997;48.448;8.924;2023-09-19T09:07:50;18.10;99.90
1992;DHT22;997;48.448;8.924;2023-09-19T09:10:22;18.10;99.90
1992;DHT22;997;48.448;8.924;2023-09-19T09:12:51;18.10;99.90
1992;DHT22;997;48.448;8.924;2023-09-19T09:15:19;18.20;99.90
1992;DHT22;997;48.448;8.924;2023-09-19T09:17:51;18.20;99.90
1992;DHT22;997;48.448;8.924;2023-09-19T09:20:20;18.30;99.90
1992;DHT22;997;48.448;8.924;2023-09-19T09:22:52;18.30;99.90
1992;DHT22;997;48.448;8.924;2023-09-19T09:25:53;18.40;99.90
1992;DHT22;997;48.448;8.924;2023-09-19T09:28:27;18.70;99.90
1992;DHT22;997;48.448;8.924;2023-09-19T09:30:57;18.80;99.90
1992;DHT22;997;48.448;8.924;2023-09-19T09:33:34;18.80;99.90
1992;DHT22;997;48.448;8.924;2023-09-19T09:36:01;18.80;99.90
1992;DHT22;997;48.448;8.924;2023-09-19T09:38:30;18.90;99.90
1992;DHT22;997;48.448;8.924;2023-09-19T09:41:00;19.00;99.90
1992;DHT22;997;48.448;8.924;2023-09-19T09:43:39;19.10;99.90
1992;DHT22;997;48.448;8.924;2023-09-19T09:46:16;19.00;99.90
1992;DHT22;997;48.448;8.924;2023-09-19T09:51:49;19.20;99.90
1992;DHT22;997;48.448;8.924;2023-09-19T09:54:27;19.20;99.90
1992;DHT22;997;48.448;8.924;2023-09-19T09:57:00;19.20;99.90
1992;DHT22;997;48.448;8.924;2023-09-19T09:59:47;19.30;99.90
1992;DHT22;997;48.448;8.924;2023-09-19T10:02:18;19.20;99.90
1992;DHT22;997;48.448;8.924;2023-09-19T10:04:52;19.40;99.90
1992;DHT22;997;48.448;8.924;2023-09-19T10:07:31;19.60;99.90
1992;DHT22;997;48.448;8.924;2023-09-19T10:10:15;19.60;99.90
1992;DHT22;997;48.448;8.924;2023-09-19T10:12:47;19.70;99.90
1992;DHT22;997;48.448;8.924;2023-09-19T10:15:18;19.80;99.90
1992;DHT22;997;48.448;8.924;2023-09-19T10:17:46;19.80;99.90
1992;DHT22;997;48.448;8.924;2023-09-19T10:20:14;19.70;99.90
1992;DHT22;997;48.448;8.924;2023-09-19T10:22:59;19.70;99.90
1992;DHT22;997;48.448;8.924;2023-09-19T10:25:27;19.80;99.90
1992;DHT22;997;48.448;8.924;2023-09-19T10:28:00;19.80;99.90
1992;DHT22;997;48.448;8.924;2023-09-19T10:30:31;20.00;99.90
1992;DHT22;997;48.448;8.924;2023-09-19T10:33:03;20.10;99.90
1992;DHT22;997;48.448;8.924;2023-09-19T10:35:30;20.20;99.90
1992;DHT22;997;48.448;8.924;2023-09-19T10:38:00;20.30;99.90
1992;DHT22;997;48.448;8.924;2023-09-19T10:40:29;20.40;99.90
1992;DHT22;997;48.448;8.924;2023-09-19T10:43:05;20.60;99.90
1992;DHT22;997;48.448;8.924;2023-09-19T10:45:36;20.90;99.90
1992;DHT22;997;48.448;8.924;2023-09-19T10:48:04;21.20;99.90
1992;DHT22;997;48.448;8.924;2023-09-19T10:50:43;21.20;99.90
1992;DHT22;997;48.448;8.924;2023-09-19T10:53:11;21.30;99.90
1992;DHT22;997;48.448;8.924;2023-09-19T10:55:38;21.30;99.90
1992;DHT22;997;48.448;8.924;2023-09-19T10:58:05;21.20;99.90
1992;DHT22;997;48.448;8.924;2023-09-19T11:00:54;21.20;99.90
1992;DHT22;997;48.448;8.924;2023-09-19T11:03:21;21.20;99.90
1992;DHT22;997;48.448;8.924;2023-09-19T11:09:01;21.20;99.90
1992;DHT22;997;48.448;8.924;2023-09-19T11:30:47;21.40;99.90
1992;DHT22;997;48.448;8.924;2023-09-19T11:33:28;21.50;99.90
1992;DHT22;997;48.448;8.924;2023-09-19T11:43:53;21.30;99.90
1992;DHT22;997;48.448;8.924;2023-09-19T11:46:24;21.00;99.90
1992;DHT22;997;48.448;8.924;2023-09-19T11:48:53;21.00;99.90
1992;DHT22;997;48.448;8.924;2023-09-19T11:51:23;21.00;99.90
1992;DHT22;997;48.448;8.924;2023-09-19T11:53:58;21.10;99.90
1992;DHT22;997;48.448;8.924;2023-09-19T11:56:27;21.20;99.90
1992;DHT22;997;48.448;8.924;2023-09-19T11:58:55;21.20;99.90
1992;DHT22;997;48.448;8.924;2023-09-19T12:01:23;21.30;99.90
1992;DHT22;997;48.448;8.924;2023-09-19T12:03:53;21.40;99.90
1992;DHT22;997;48.448;8.924;2023-09-19T12:06:20;21.60;99.90
1992;DHT22;997;48.448;8.924;2023-09-19T12:08:47;21.70;99.90
1992;DHT22;997;48.448;8.924;2023-09-19T12:11:15;21.70;99.90
1992;DHT22;997;48.448;8.924;2023-09-19T12:13:43;21.70;99.90
1992;DHT22;997;48.448;8.924;2023-09-19T12:16:17;21.80;99.90
1992;DHT22;997;48.448;8.924;2023-09-19T12:18:47;21.70;99.90
1992;DHT22;997;48.448;8.924;2023-09-19T12:23:59;21.90;99.90
1992;DHT22;997;48.448;8.924;2023-09-19T12:26:27;22.00;99.90
1992;DHT22;997;48.448;8.924;2023-09-19T12:28:55;22.00;99.90
1992;DHT22;997;48.448;8.924;2023-09-19T12:31:21;22.10;99.90
1992;DHT22;997;48.448;8.924;2023-09-19T12:33:53;22.30;99.90
1992;DHT22;997;48.448;8.924;2023-09-19T12:36:23;22.40;99.90
1992;DHT22;997;48.448;8.924;2023-09-19T12:39:22;22.50;99.90
1992;DHT22;997;48.448;8.924;2023-09-19T12:41:48;22.50;99.90
1992;DHT22;997;48.448;8.924;2023-09-19T12:44:16;22.70;99.90
1992;DHT22;997;48.448;8.924;2023-09-19T12:46:44;22.70;99.90
1992;DHT22;997;48.448;8.924;2023-09-19T12:49:18;22.80;99.90
1992;DHT22;997;48.448;8.924;2023-09-19T12:51:47;22.90;99.90
1992;DHT22;997;48.448;8.924;2023-09-19T12:54:13;22.70;99.90
1992;DHT22;997;48.448;8.924;2023-09-19T12:56:44;22.80;99.90
1992;DHT22;997;48.448;8.924;2023-09-19T12:59:12;22.80;99.90
1992;DHT22;997;48.448;8.924;2023-09-19T13:01:39;22.80;99.90
1992;DHT22;997;48.448;8.924;2023-09-19T13:04:19;22.80;99.90
1992;DHT22;997;48.448;8.924;2023-09-19T13:06:46;22.80;99.90
1992;DHT22;997;48.448;8.924;2023-09-19T13:09:15;22.80;99.90
1992;DHT22;997;48.448;8.924;2023-09-19T13:11:41;22.90;99.90
1992;DHT22;997;48.448;8.924;2023-09-19T13:19:48;22.90;99.90
1992;DHT22;997;48.448;8.924;2023-09-19T13:22:43;22.80;99.90
1992;DHT22;997;48.448;8.924;2023-09-19T13:25:20;22.90;99.90
1992;DHT22;997;48.448;8.924;2023-09-19T13:27:54;23.00;99.90
1992;DHT22;997;48.448;8.924;2023-09-19T13:30:22;23.10;99.90
1992;DHT22;997;48.448;8.924;2023-09-19T13:32:50;23.20;99.90
1992;DHT22;997;48.448;8.924;2023-09-19T13:35:16;23.20;99.90
1992;DHT22;997;48.448;8.924;2023-09-19T13:37:43;23.30;99.90
1992;DHT22;997;48.448;8.924;2023-09-19T13:40:13;23.40;99.90
1992;DHT22;997;48.448;8.924;2023-09-19T13:42:39;23.40;99.90
1992;DHT22;997;48.448;8.924;2023-09-19T13:45:06;23.50;99.90
1992;DHT22;997;48.448;8.924;2023-09-19T13:47:36;23.40;99.90
1992;DHT22;997;48.448;8.924;2023-09-19T13:50:03;23.40;99.90
1992;DHT22;997;48.448;8.924;2023-09-19T13:52:31;23.50;99.90
1992;DHT22;997;48.448;8.924;2023-09-19T13:54:57;23.80;99.90
1992;DHT22;997;48.448;8.924;2023-09-19T13:57:26;24.00;99.90
1992;DHT22;997;48.448;8.924;2023-09-19T13:59:53;24.00;99.90
1992;DHT22;997;48.448;8.924;2023-09-19T14:02:22;23.90;99.90
1992;DHT22;997;48.448;8.924;2023-09-19T14:04:49;23.90;99.90
1992;DHT22;997;48.448;8.924;2023-09-19T14:07:15;24.00;99.90
1992;DHT22;997;48.448;8.924;2023-09-19T14:09:43;24.10;99.90
1992;DHT22;997;48.448;8.924;2023-09-19T14:12:08;24.20;99.90
1992;DHT22;997;48.448;8.924;2023-09-19T14:14:34;24.30;99.90
1992;DHT22;997;48.448;8.924;2023-09-19T14:17:00;24.30;99.90
1992;DHT22;997;48.448;8.924;2023-09-19T14:19:29;24.40;99.90
1992;DHT22;997;48.448;8.924;2023-09-19T14:21:55;24.70;99.90
1992;DHT22;997;48.448;8.924;2023-09-19T14:24:21;25.10;99.90
1992;DHT22;997;48.448;8.924;2023-09-19T14:26:48;25.40;99.90
1992;DHT22;997;48.448;8.924;2023-09-19T14:29:15;25.40;99.90
1992;DHT22;997;48.448;8.924;2023-09-19T14:31:42;25.50;99.90
1992;DHT22;997;48.448;8.924;2023-09-19T14:34:08;25.60;99.90
1992;DHT22;997;48.448;8.924;2023-09-19T14:36:37;25.60;99.90
1992;DHT22;997;48.448;8.924;2023-09-19T14:39:04;25.80;99.90
1992;DHT22;997;48.448;8.924;2023-09-19T14:41:30;25.80;99.90
1992;DHT22;997;48.448;8.924;2023-09-19T14:43:56;26.10;99.90
1992;DHT22;997;48.448;8.924;2023-09-19T14:46:22;26.10;99.90
1992;DHT22;997;48.448;8.924;2023-09-19T14:48:52;26.20;99.90
1992;DHT22;997;48.448;8.924;2023-09-19T14:51:18;26.30;99.90
1992;DHT22;997;48.448;8.924;2023-09-19T14:53:45;26.60;99.90
1992;DHT22;997;48.448;8.924;2023-09-19T14:56:12;26.90;99.90
1992;DHT22;997;48.448;8.924;2023-09-19T14:58:41;27.00;99.90
1992;DHT22;997;48.448;8.924;2023-09-19T15:01:12;27.20;99.70
1992;DHT22;997;48.448;8.924;2023-09-19T15:03:39;27.40;99.10
1992;DHT22;997;48.448;8.924;2023-09-19T15:06:06;27.30;98.50
1992;DHT22;997;48.448;8.924;2023-09-19T15:08:33;27.30;97.50
1992;DHT22;997;48.448;8.924;2023-09-19T15:11:07;27.40;96.00
1992;DHT22;997;48.448;8.924;2023-09-19T15:13:34;27.20;95.10
1992;DHT22;997;48.448;8.924;2023-09-19T15:16:05;27.00;95.70
1992;DHT22;997;48.448;8.924;2023-09-19T15:18:34;27.10;95.70
1992;DHT22;997;48.448;8.924;2023-09-19T15:21:12;27.60;95.40
1992;DHT22;997;48.448;8.924;2023-09-19T15:23:38;28.20;96.30
1992;DHT22;997;48.448;8.924;2023-09-19T15:26:05;28.30;93.60
1992;DHT22;997;48.448;8.924;2023-09-19T15:28:32;28.70;93.30
1992;DHT22;997;48.448;8.924;2023-09-19T15:31:04;29.20;93.30
1992;DHT22;997;48.448;8.924;2023-09-19T15:33:30;29.20;91.20
1992;DHT22;997;48.448;8.924;2023-09-19T15:36:10;29.30;88.40
1992;DHT22;997;48.448;8.924;2023-09-19T15:39:02;29.10;88.80
1992;DHT22;997;48.448;8.924;2023-09-19T15:41:32;29.40;87.20
1992;DHT22;997;48.448;8.924;2023-09-19T15:43:58;30.00;88.00
1992;DHT22;997;48.448;8.924;2023-09-19T15:46:32;30.40;83.40
1992;DHT22;997;48.448;8.924;2023-09-19T15:49:02;31.20;86.70
1992;DHT22;997;48.448;8.924;2023-09-19T15:51:28;31.70;81.30
1992;DHT22;997;48.448;8.924;2023-09-19T15:53:54;31.90;79.10
1992;DHT22;997;48.448;8.924;2023-09-19T15:56:25;31.90;75.10
1992;DHT22;997;48.448;8.924;2023-09-19T15:58:54;31.90;75.90
1992;DHT22;997;48.448;8.924;2023-09-19T16:01:21;31.30;74.00
1992;DHT22;997;48.448;8.924;2023-09-19T16:03:48;31.20;73.00
1992;DHT22;997;48.448;8.924;2023-09-19T16:06:19;31.20;72.40
1992;DHT22;997;48.448;8.924;2023-09-19T16:08:46;31.80;74.20
1992;DHT22;997;48.448;8.924;2023-09-19T16:11:13;32.70;72.00
1992;DHT22;997;48.448;8.924;2023-09-19T16:13:39;32.70;70.00
1992;DHT22;997;48.448;8.924;2023-09-19T16:16:11;32.80;68.90
1992;DHT22;997;48.448;8.924;2023-09-19T16:18:39;32.40;63.40
1992;DHT22;997;48.448;8.924;2023-09-19T16:21:06;32.20;64.90
1992;DHT22;997;48.448;8.924;2023-09-19T16:23:33;32.10;65.30
1992;DHT22;997;48.448;8.924;2023-09-19T16:28:34;32.40;61.40
1992;DHT22;997;48.448;8.924;2023-09-19T16:31:02;31.90;63.90
1992;DHT22;997;48.448;8.924;2023-09-19T16:33:32;30.70;63.20
1992;DHT22;997;48.448;8.924;2023-09-19T16:35:58;29.20;66.00
1992;DHT22;997;48.448;8.924;2023-09-19T16:38:25;28.40;68.00
1992;DHT22;997;48.448;8.924;2023-09-19T16:40:56;26.80;69.80
1992;DHT22;997;48.448;8.924;2023-09-19T16:43:24;25.90;72.90
1992;DHT22;997;48.448;8.924;2023-09-19T16:45:58;25.20;75.70
1992;DHT22;997;48.448;8.924;2023-09-19T16:48:25;24.50;76.40
1992;DHT22;997;48.448;8.924;2023-09-19T16:51:09;24.10;78.40
1992;DHT22;997;48.448;8.924;2023-09-19T16:53:35;23.70;80.70
1992;DHT22;997;48.448;8.924;2023-09-19T16:56:06;23.20;80.90
1992;DHT22;997;48.448;8.924;2023-09-19T16:58:45;22.80;82.60
1992;DHT22;997;48.448;8.924;2023-09-19T17:01:13;22.50;83.40
1992;DHT22;997;48.448;8.924;2023-09-19T17:03:40;22.30;85.20
1992;DHT22;997;48.448;8.924;2023-09-19T17:06:06;22.10;86.50
1992;DHT22;997;48.448;8.924;2023-09-19T17:08:32;22.00;86.50
1992;DHT22;997;48.448;8.924;2023-09-19T17:11:06;21.80;87.40
1992;DHT22;997;48.448;8.924;2023-09-19T17:13:34;21.60;88.80
1992;DHT22;997;48.448;8.924;2023-09-19T17:16:05;21.50;88.70
1992;DHT22;997;48.448;8.924;2023-09-19T17:18:34;21.60;90.20
1992;DHT22;997;48.448;8.924;2023-09-19T17:21:00;21.40;90.40
1992;DHT22;997;48.448;8.924;2023-09-19T17:23:30;21.20;90.60
1992;DHT22;997;48.448;8.924;2023-09-19T17:26:14;21.00;91.30
1992;DHT22;997;48.448;8.924;2023-09-19T17:28:42;21.00;91.90
1992;DHT22;997;48.448;8.924;2023-09-19T17:31:19;21.00;92.40
1992;DHT22;997;48.448;8.924;2023-09-19T17:33:48;21.10;93.00
1992;DHT22;997;48.448;8.924;2023-09-19T17:36:19;21.10;93.00
1992;DHT22;997;48.448;8.924;2023-09-19T17:38:53;21.10;93.10
1992;DHT22;997;48.448;8.924;2023-09-19T17:41:19;20.90;93.60
1992;DHT22;997;48.448;8.924;2023-09-19T17:43:52;20.80;94.00
1992;DHT22;997;48.448;8.924;2023-09-19T17:46:18;20.80;94.10
1992;DHT22;997;48.448;8.924;2023-09-19T17:48:47;20.80;94.30
1992;DHT22;997;48.448;8.924;2023-09-19T17:51:14;20.80;94.60
1992;DHT22;997;48.448;8.924;2023-09-19T17:53:43;20.60;94.80
1992;DHT22;997;48.448;8.924;2023-09-19T17:56:14;20.60;95.40
1992;DHT22;997;48.448;8.924;2023-09-19T17:58:41;20.60;95.40
1992;DHT22;997;48.448;8.924;2023-09-19T18:01:17;20.60;95.70
1992;DHT22;997;48.448;8.924;2023-09-19T18:03:46;20.50;96.20
1992;DHT22;997;48.448;8.924;2023-09-19T18:06:14;20.50;96.20
1992;DHT22;997;48.448;8.924;2023-09-19T18:08:42;20.30;96.80
1992;DHT22;997;48.448;8.924;2023-09-19T18:11:13;20.30;97.00
1992;DHT22;997;48.448;8.924;2023-09-19T18:13:46;20.30;97.50
1992;DHT22;997;48.448;8.924;2023-09-19T18:16:18;20.20;98.20
1992;DHT22;997;48.448;8.924;2023-09-19T18:18:45;20.20;99.40
1992;DHT22;997;48.448;8.924;2023-09-19T18:21:16;20.20;99.70
1992;DHT22;997;48.448;8.924;2023-09-19T18:23:41;20.20;99.90
1992;DHT22;997;48.448;8.924;2023-09-19T18:26:07;20.20;99.90
1992;DHT22;997;48.448;8.924;2023-09-19T18:28:36;20.10;99.90
1992;DHT22;997;48.448;8.924;2023-09-19T18:31:07;20.00;99.90
1992;DHT22;997;48.448;8.924;2023-09-19T18:33:34;20.00;99.90
1992;DHT22;997;48.448;8.924;2023-09-19T18:36:07;20.00;99.90
1992;DHT22;997;48.448;8.924;2023-09-19T18:38:38;20.10;99.90
1992;DHT22;997;48.448;8.924;2023-09-19T18:41:09;20.00;99.90
1992;DHT22;997;48.448;8.924;2023-09-19T18:43:36;19.90;99.90
1992;DHT22;997;48.448;8.924;2023-09-19T18:46:03;19.80;99.90
1992;DHT22;997;48.448;8.924;2023-09-19T18:48:38;19.70;99.90
1992;DHT22;997;48.448;8.924;2023-09-19T18:51:07;19.60;99.90
1992;DHT22;997;48.448;8.924;2023-09-19T18:53:34;19.50;99.90
1992;DHT22;997;48.448;8.924;2023-09-19T18:56:08;19.50;99.90
1992;DHT22;997;48.448;8.924;2023-09-19T18:58:37;19.40;99.90
1992;DHT22;997;48.448;8.924;2023-09-19T19:01:07;19.40;99.90
1992;DHT22;997;48.448;8.924;2023-09-19T19:03:34;19.40;99.90
1992;DHT22;997;48.448;8.924;2023-09-19T19:06:06;19.30;99.90
1992;DHT22;997;48.448;8.924;2023-09-19T19:08:33;19.30;99.90
1992;DHT22;997;48.448;8.924;2023-09-19T19:11:00;19.30;99.90
1992;DHT22;997;48.448;8.924;2023-09-19T19:13:26;19.30;99.90
1992;DHT22;997;48.448;8.924;2023-09-19T19:15:56;19.30;99.90
1992;DHT22;997;48.448;8.924;2023-09-19T19:18:21;19.30;99.90
1992;DHT22;997;48.448;8.924;2023-09-19T19:21:03;19.30;99.90
1992;DHT22;997;48.448;8.924;2023-09-19T19:23:30;19.20;99.90
1992;DHT22;997;48.448;8.924;2023-09-19T19:25:56;19.20;99.90
1992;DHT22;997;48.448;8.924;2023-09-19T19:28:32;19.30;99.90
1992;DHT22;997;48.448;8.924;2023-09-19T19:30:58;19.30;99.90
1992;DHT22;997;48.448;8.924;2023-09-19T19:33:24;19.20;99.90
1992;DHT22;997;48.448;8.924;2023-09-19T19:35:50;19.10;99.90
1992;DHT22;997;48.448;8.924;2023-09-19T19:38:16;19.00;99.90
1992;DHT22;997;48.448;8.924;2023-09-19T19:40:43;18.90;99.90
1992;DHT22;997;48.448;8.924;2023-09-19T19:43:09;18.80;99.90
1992;DHT22;997;48.448;8.924;2023-09-19T19:45:35;18.70;99.90
1992;DHT22;997;48.448;8.924;2023-09-19T19:48:02;18.70;99.90
1992;DHT22;997;48.448;8.924;2023-09-19T19:50:37;18.60;99.90
1992;DHT22;997;48.448;8.924;2023-09-19T19:53:03;18.60;99.90
1992;DHT22;997;48.448;8.924;2023-09-19T19:55:31;18.50;99.90
1992;DHT22;997;48.448;8.924;2023-09-19T19:57:57;18.50;99.90
1992;DHT22;997;48.448;8.924;2023-09-19T20:00:24;18.50;99.90
1992;DHT22;997;48.448;8.924;2023-09-19T20:02:49;18.40;99.90
1992;DHT22;997;48.448;8.924;2023-09-19T20:05:16;18.30;99.90
1992;DHT22;997;48.448;8.924;2023-09-19T20:07:42;18.20;99.90
1992;DHT22;997;48.448;8.924;2023-09-19T20:10:09;18.20;99.90
1992;DHT22;997;48.448;8.924;2023-09-19T20:12:38;18.10;99.90
1992;DHT22;997;48.448;8.924;2023-09-19T20:15:04;18.00;99.90
1992;DHT22;997;48.448;8.924;2023-09-19T20:17:30;17.90;99.90
1992;DHT22;997;48.448;8.924;2023-09-19T20:19:56;17.80;99.90